sensor_id;sensor_type;location;lat;lon;timestamp;temperature;humidity
58405;DHT22;44200;50.732;4.276;2022-07-29T00:00:57;20.90;84.60
58405;DHT22;44200;50.732;4.276;2022-07-29T00:03:23;20.90;83.40
58405;DHT22;44200;50.732;4.276;2022-07-29T00:05:52;20.80;84.50
58405;DHT22;44200;50.732;4.276;2022-07-29T00:08:18;20.80;84.40
58405;DHT22;44200;50.732;4.276;2022-07-29T00:10:44;21.00;87.20
58405;DHT22;44200;50.732;4.276;2022-07-29T00:13:10;21.00;85.80
58405;DHT22;44200;50.732;4.276;2022-07-29T00:15:36;20.80;83.90
58405;DHT22;44200;50.732;4.276;2022-07-29T00:18:01;20.80;85.70
58405;DHT22;44200;50.732;4.276;2022-07-29T00:20:27;20.60;85.00
58405;DHT22;44200;50.732;4.276;2022-07-29T00:22:53;20.60;84.50
58405;DHT22;44200;50.732;4.276;2022-07-29T00:25:19;20.60;85.10
58405;DHT22;44200;50.732;4.276;2022-07-29T00:27:45;20.50;84.60
58405;DHT22;44200;50.732;4.276;2022-07-29T00:30:12;20.50;84.20
58405;DHT22;44200;50.732;4.276;2022-07-29T00:32:37;20.40;84.40
58405;DHT22;44200;50.732;4.276;2022-07-29T00:35:06;20.40;83.90
58405;DHT22;44200;50.732;4.276;2022-07-29T00:37:50;20.30;84.20
58405;DHT22;44200;50.732;4.276;2022-07-29T00:40:16;20.30;85.00
58405;DHT22;44200;50.732;4.276;2022-07-29T00:42:47;20.40;84.80
58405;DHT22;44200;50.732;4.276;2022-07-29T00:45:14;20.30;84.70
58405;DHT22;44200;50.732;4.276;2022-07-29T00:47:40;20.20;85.50
58405;DHT22;44200;50.732;4.276;2022-07-29T00:50:08;20.10;84.80
58405;DHT22;44200;50.732;4.276;2022-07-29T00:52:36;20.10;84.80
58405;DHT22;44200;50.732;4.276;2022-07-29T00:55:07;20.10;84.50
58405;DHT22;44200;50.732;4.276;2022-07-29T00:57:35;20.00;84.20
58405;DHT22;44200;50.732;4.276;2022-07-29T01:00:04;19.90;85.80
58405;DHT22;44200;50.732;4.276;2022-07-29T01:02:31;19.80;84.70
58405;DHT22;44200;50.732;4.276;2022-07-29T01:04:57;19.70;85.70
58405;DHT22;44200;50.732;4.276;2022-07-29T01:07:24;19.70;85.30
58405;DHT22;44200;50.732;4.276;2022-07-29T01:09:51;19.70;85.10
58405;DHT22;44200;50.732;4.276;2022-07-29T01:12:23;19.60;85.60
58405;DHT22;44200;50.732;4.276;2022-07-29T01:14:50;19.70;84.70
58405;DHT22;44200;50.732;4.276;2022-07-29T01:17:32;19.70;85.20
58405;DHT22;44200;50.732;4.276;2022-07-29T01:28:11;19.60;84.90
58405;DHT22;44200;50.732;4.276;2022-07-29T01:30:43;19.60;85.00
58405;DHT22;44200;50.732;4.276;2022-07-29T01:33:13;19.60;85.00
58405;DHT22;44200;50.732;4.276;2022-07-29T01:36:01;19.50;85.90
58405;DHT22;44200;50.732;4.276;2022-07-29T01:38:30;19.30;86.30
58405;DHT22;44200;50.732;4.276;2022-07-29T01:41:06;19.00;87.60
58405;DHT22;44200;50.732;4.276;2022-07-29T01:44:18;19.00;86.90
58405;DHT22;44200;50.732;4.276;2022-07-29T01:46:46;19.10;87.00
58405;DHT22;44200;50.732;4.276;2022-07-29T01:49:27;19.00;87.50
58405;DHT22;44200;50.732;4.276;2022-07-29T01:52:00;19.10;87.80
58405;DHT22;44200;50.732;4.276;2022-07-29T01:54:38;19.10;87.70
58405;DHT22;44200;50.732;4.276;2022-07-29T01:57:06;18.90;87.20
58405;DHT22;44200;50.732;4.276;2022-07-29T01:59:34;19.00;87.30
58405;DHT22;44200;50.732;4.276;2022-07-29T02:04:37;18.90;87.90
58405;DHT22;44200;50.732;4.276;2022-07-29T02:07:05;18.90;88.00
58405;DHT22;44200;50.732;4.276;2022-07-29T02:09:35;18.80;87.70
58405;DHT22;44200;50.732;4.276;2022-07-29T02:12:03;18.80;88.10
58405;DHT22;44200;50.732;4.276;2022-07-29T02:14:43;18.90;87.70
58405;DHT22;44200;50.732;4.276;2022-07-29T02:17:11;18.80;88.40
58405;DHT22;44200;50.732;4.276;2022-07-29T02:19:38;18.80;87.90
58405;DHT22;44200;50.732;4.276;2022-07-29T02:22:06;18.90;88.10
58405;DHT22;44200;50.732;4.276;2022-07-29T02:24:34;19.00;87.60
58405;DHT22;44200;50.732;4.276;2022-07-29T02:27:01;18.90;88.50
58405;DHT22;44200;50.732;4.276;2022-07-29T02:29:30;18.90;87.70
58405;DHT22;44200;50.732;4.276;2022-07-29T02:31:57;18.70;89.10
58405;DHT22;44200;50.732;4.276;2022-07-29T02:34:24;18.70;89.00
58405;DHT22;44200;50.732;4.276;2022-07-29T02:36:51;18.50;89.50
58405;DHT22;44200;50.732;4.276;2022-07-29T02:39:18;18.60;89.50
58405;DHT22;44200;50.732;4.276;2022-07-29T02:41:47;18.40;90.10
58405;DHT22;44200;50.732;4.276;2022-07-29T02:44:19;18.40;89.90
58405;DHT22;44200;50.732;4.276;2022-07-29T02:52:01;18.10;90.30
58405;DHT22;44200;50.732;4.276;2022-07-29T02:57:00;18.00;90.70
58405;DHT22;44200;50.732;4.276;2022-07-29T02:59:30;17.90;90.70
58405;DHT22;44200;50.732;4.276;2022-07-29T03:02:00;17.90;90.80
58405;DHT22;44200;50.732;4.276;2022-07-29T03:04:27;18.00;90.60
58405;DHT22;44200;50.732;4.276;2022-07-29T03:06:56;18.10;90.50
58405;DHT22;44200;50.732;4.276;2022-07-29T03:09:23;18.10;90.80
58405;DHT22;44200;50.732;4.276;2022-07-29T03:11:49;18.10;90.90
58405;DHT22;44200;50.732;4.276;2022-07-29T03:14:19;18.00;91.10
58405;DHT22;44200;50.732;4.276;2022-07-29T03:16:45;18.10;90.60
58405;DHT22;44200;50.732;4.276;2022-07-29T03:19:12;17.80;91.00
58405;DHT22;44200;50.732;4.276;2022-07-29T03:21:38;17.80;91.20
58405;DHT22;44200;50.732;4.276;2022-07-29T03:24:04;17.80;91.10
58405;DHT22;44200;50.732;4.276;2022-07-29T03:26:30;17.60;91.70
58405;DHT22;44200;50.732;4.276;2022-07-29T03:28:55;17.60;91.90
58405;DHT22;44200;50.732;4.276;2022-07-29T03:31:21;17.80;91.80
58405;DHT22;44200;50.732;4.276;2022-07-29T03:33:47;17.70;91.70
58405;DHT22;44200;50.732;4.276;2022-07-29T03:36:12;17.80;91.60
58405;DHT22;44200;50.732;4.276;2022-07-29T03:38:40;17.90;91.40
58405;DHT22;44200;50.732;4.276;2022-07-29T03:41:10;17.60;91.50
58405;DHT22;44200;50.732;4.276;2022-07-29T03:43:38;17.50;91.60
58405;DHT22;44200;50.732;4.276;2022-07-29T03:46:07;17.50;91.70
58405;DHT22;44200;50.732;4.276;2022-07-29T03:48:37;17.50;91.80
58405;DHT22;44200;50.732;4.276;2022-07-29T03:51:05;17.50;92.00
58405;DHT22;44200;50.732;4.276;2022-07-29T03:53:32;17.50;91.90
58405;DHT22;44200;50.732;4.276;2022-07-29T03:56:01;17.40;92.30
58405;DHT22;44200;50.732;4.276;2022-07-29T03:58:27;17.50;92.10
58405;DHT22;44200;50.732;4.276;2022-07-29T04:00:55;17.30;92.50
58405;DHT22;44200;50.732;4.276;2022-07-29T04:03:22;17.30;92.60
58405;DHT22;44200;50.732;4.276;2022-07-29T04:06:02;17.30;92.60
58405;DHT22;44200;50.732;4.276;2022-07-29T04:08:28;17.40;92.60
58405;DHT22;44200;50.732;4.276;2022-07-29T04:10:53;17.40;92.40
58405;DHT22;44200;50.732;4.276;2022-07-29T04:13:20;17.50;92.30
58405;DHT22;44200;50.732;4.276;2022-07-29T04:15:46;17.50;92.40
58405;DHT22;44200;50.732;4.276;2022-07-29T04:18:11;17.50;92.50
58405;DHT22;44200;50.732;4.276;2022-07-29T04:20:37;17.50;92.70
58405;DHT22;44200;50.732;4.276;2022-07-29T04:23:03;17.40;92.80
58405;DHT22;44200;50.732;4.276;2022-07-29T04:25:28;17.40;92.80
58405;DHT22;44200;50.732;4.276;2022-07-29T04:27:54;17.30;93.10
58405;DHT22;44200;50.732;4.276;2022-07-29T04:30:25;17.20;93.30
58405;DHT22;44200;50.732;4.276;2022-07-29T04:32:51;17.10;93.30
58405;DHT22;44200;50.732;4.276;2022-07-29T04:35:16;17.20;93.20
58405;DHT22;44200;50.732;4.276;2022-07-29T04:37:42;17.20;93.10
58405;DHT22;44200;50.732;4.276;2022-07-29T04:40:08;17.30;93.30
58405;DHT22;44200;50.732;4.276;2022-07-29T04:42:34;17.20;93.50
58405;DHT22;44200;50.732;4.276;2022-07-29T04:44:59;17.00;93.70
58405;DHT22;44200;50.732;4.276;2022-07-29T04:47:25;16.90;94.00
58405;DHT22;44200;50.732;4.276;2022-07-29T04:49:50;16.80;94.50
58405;DHT22;44200;50.732;4.276;2022-07-29T04:52:16;16.80;94.60
58405;DHT22;44200;50.732;4.276;2022-07-29T04:54:41;16.90;94.50
58405;DHT22;44200;50.732;4.276;2022-07-29T04:57:07;17.00;94.50
58405;DHT22;44200;50.732;4.276;2022-07-29T04:59:33;17.20;94.50
58405;DHT22;44200;50.732;4.276;2022-07-29T05:01:58;17.10;94.70
58405;DHT22;44200;50.732;4.276;2022-07-29T05:04:24;17.00;94.80
58405;DHT22;44200;50.732;4.276;2022-07-29T05:06:50;17.10;94.60
58405;DHT22;44200;50.732;4.276;2022-07-29T05:09:15;17.10;94.70
58405;DHT22;44200;50.732;4.276;2022-07-29T05:11:41;17.20;94.60
58405;DHT22;44200;50.732;4.276;2022-07-29T05:14:07;17.30;94.30
58405;DHT22;44200;50.732;4.276;2022-07-29T05:16:32;17.40;94.30
58405;DHT22;44200;50.732;4.276;2022-07-29T05:18:58;17.20;94.70
58405;DHT22;44200;50.732;4.276;2022-07-29T05:21:24;17.10;95.10
58405;DHT22;44200;50.732;4.276;2022-07-29T05:23:50;17.20;95.10
58405;DHT22;44200;50.732;4.276;2022-07-29T05:26:15;17.10;95.30
58405;DHT22;44200;50.732;4.276;2022-07-29T05:28:41;17.10;95.60
58405;DHT22;44200;50.732;4.276;2022-07-29T05:31:06;16.70;96.30
58405;DHT22;44200;50.732;4.276;2022-07-29T05:33:32;16.50;97.20
58405;DHT22;44200;50.732;4.276;2022-07-29T05:35:58;16.30;97.50
58405;DHT22;44200;50.732;4.276;2022-07-29T05:38:24;16.10;97.70
58405;DHT22;44200;50.732;4.276;2022-07-29T05:40:49;15.80;98.20
58405;DHT22;44200;50.732;4.276;2022-07-29T05:43:15;16.00;98.60
58405;DHT22;44200;50.732;4.276;2022-07-29T05:45:41;16.10;98.70
58405;DHT22;44200;50.732;4.276;2022-07-29T05:48:06;16.30;98.50
58405;DHT22;44200;50.732;4.276;2022-07-29T05:50:32;16.50;98.70
58405;DHT22;44200;50.732;4.276;2022-07-29T05:52:58;16.80;98.30
58405;DHT22;44200;50.732;4.276;2022-07-29T05:55:23;16.90;98.00
58405;DHT22;44200;50.732;4.276;2022-07-29T05:57:49;16.80;98.20
58405;DHT22;44200;50.732;4.276;2022-07-29T06:00:15;17.00;98.10
58405;DHT22;44200;50.732;4.276;2022-07-29T06:02:40;17.20;96.90
58405;DHT22;44200;50.732;4.276;2022-07-29T06:05:06;17.30;96.60
58405;DHT22;44200;50.732;4.276;2022-07-29T06:07:33;17.30;96.50
58405;DHT22;44200;50.732;4.276;2022-07-29T06:09:59;17.30;97.00
58405;DHT22;44200;50.732;4.276;2022-07-29T06:12:25;17.10;97.30
58405;DHT22;44200;50.732;4.276;2022-07-29T06:14:50;17.10;97.00
58405;DHT22;44200;50.732;4.276;2022-07-29T06:17:16;17.20;97.20
58405;DHT22;44200;50.732;4.276;2022-07-29T06:19:42;17.20;97.40
58405;DHT22;44200;50.732;4.276;2022-07-29T06:22:07;17.30;97.40
58405;DHT22;44200;50.732;4.276;2022-07-29T06:24:33;17.20;97.50
58405;DHT22;44200;50.732;4.276;2022-07-29T06:26:59;17.30;97.30
58405;DHT22;44200;50.732;4.276;2022-07-29T06:29:24;17.30;97.70
58405;DHT22;44200;50.732;4.276;2022-07-29T06:31:50;17.70;96.60
58405;DHT22;44200;50.732;4.276;2022-07-29T06:34:16;18.00;96.00
58405;DHT22;44200;50.732;4.276;2022-07-29T06:36:41;17.50;96.40
58405;DHT22;44200;50.732;4.276;2022-07-29T06:39:07;17.50;96.80
58405;DHT22;44200;50.732;4.276;2022-07-29T06:41:34;17.80;96.30
58405;DHT22;44200;50.732;4.276;2022-07-29T06:43:59;18.10;95.30
58405;DHT22;44200;50.732;4.276;2022-07-29T06:46:25;18.40;95.40
58405;DHT22;44200;50.732;4.276;2022-07-29T06:48:51;18.70;94.80
58405;DHT22;44200;50.732;4.276;2022-07-29T06:51:17;18.70;95.10
58405;DHT22;44200;50.732;4.276;2022-07-29T06:53:43;18.50;95.50
58405;DHT22;44200;50.732;4.276;2022-07-29T06:56:09;18.30;96.00
58405;DHT22;44200;50.732;4.276;2022-07-29T06:58:35;18.20;97.10
58405;DHT22;44200;50.732;4.276;2022-07-29T07:01:03;18.40;96.70
58405;DHT22;44200;50.732;4.276;2022-07-29T07:03:30;18.30;96.90
58405;DHT22;44200;50.732;4.276;2022-07-29T07:05:56;18.60;96.10
58405;DHT22;44200;50.732;4.276;2022-07-29T07:08:22;18.50;96.70
58405;DHT22;44200;50.732;4.276;2022-07-29T07:10:49;18.40;96.70
58405;DHT22;44200;50.732;4.276;2022-07-29T07:13:15;18.30;96.90
58405;DHT22;44200;50.732;4.276;2022-07-29T07:15:45;18.20;97.10
58405;DHT22;44200;50.732;4.276;2022-07-29T07:18:13;18.20;96.50
58405;DHT22;44200;50.732;4.276;2022-07-29T07:20:39;18.70;96.80
58405;DHT22;44200;50.732;4.276;2022-07-29T07:23:04;18.70;95.90
58405;DHT22;44200;50.732;4.276;2022-07-29T07:25:31;19.10;96.30
58405;DHT22;44200;50.732;4.276;2022-07-29T07:27:57;19.40;95.30
58405;DHT22;44200;50.732;4.276;2022-07-29T07:30:23;20.10;93.80
58405;DHT22;44200;50.732;4.276;2022-07-29T07:32:48;20.50;93.00
58405;DHT22;44200;50.732;4.276;2022-07-29T07:35:14;20.30;93.40
58405;DHT22;44200;50.732;4.276;2022-07-29T07:37:40;19.90;94.50
58405;DHT22;44200;50.732;4.276;2022-07-29T07:40:07;19.90;94.00
58405;DHT22;44200;50.732;4.276;2022-07-29T07:42:32;19.60;94.40
58405;DHT22;44200;50.732;4.276;2022-07-29T07:44:59;19.70;94.50
58405;DHT22;44200;50.732;4.276;2022-07-29T07:47:25;19.60;94.50
58405;DHT22;44200;50.732;4.276;2022-07-29T07:49:52;19.40;95.00
58405;DHT22;44200;50.732;4.276;2022-07-29T07:52:19;19.30;94.90
58405;DHT22;44200;50.732;4.276;2022-07-29T07:54:45;19.30;95.10
58405;DHT22;44200;50.732;4.276;2022-07-29T07:57:12;19.60;94.90
58405;DHT22;44200;50.732;4.276;2022-07-29T07:59:38;20.00;94.40
58405;DHT22;44200;50.732;4.276;2022-07-29T08:02:04;20.00;94.30
58405;DHT22;44200;50.732;4.276;2022-07-29T08:04:30;19.70;94.90
58405;DHT22;44200;50.732;4.276;2022-07-29T08:06:57;19.60;95.00
58405;DHT22;44200;50.732;4.276;2022-07-29T08:09:24;19.60;95.10
58405;DHT22;44200;50.732;4.276;2022-07-29T08:11:50;19.70;94.30
58405;DHT22;44200;50.732;4.276;2022-07-29T08:14:16;20.10;94.30
58405;DHT22;44200;50.732;4.276;2022-07-29T08:16:42;20.50;93.70
58405;DHT22;44200;50.732;4.276;2022-07-29T08:19:08;20.70;93.90
58405;DHT22;44200;50.732;4.276;2022-07-29T08:21:34;21.30;93.00
58405;DHT22;44200;50.732;4.276;2022-07-29T08:24:00;21.00;93.20
58405;DHT22;44200;50.732;4.276;2022-07-29T08:26:44;21.00;92.70
58405;DHT22;44200;50.732;4.276;2022-07-29T08:29:11;22.10;92.10
58405;DHT22;44200;50.732;4.276;2022-07-29T08:31:37;21.80;91.30
58405;DHT22;44200;50.732;4.276;2022-07-29T08:34:04;22.10;91.70
58405;DHT22;44200;50.732;4.276;2022-07-29T08:36:30;22.00;91.70
58405;DHT22;44200;50.732;4.276;2022-07-29T08:38:57;22.20;91.30
58405;DHT22;44200;50.732;4.276;2022-07-29T08:41:22;23.50;89.30
58405;DHT22;44200;50.732;4.276;2022-07-29T08:43:49;24.50;86.70
58405;DHT22;44200;50.732;4.276;2022-07-29T08:46:16;23.60;89.30
58405;DHT22;44200;50.732;4.276;2022-07-29T08:48:42;23.40;89.20
58405;DHT22;44200;50.732;4.276;2022-07-29T08:51:13;25.30;85.80
58405;DHT22;44200;50.732;4.276;2022-07-29T08:53:41;24.80;86.10
58405;DHT22;44200;50.732;4.276;2022-07-29T08:56:07;24.60;85.60
58405;DHT22;44200;50.732;4.276;2022-07-29T08:58:36;24.80;86.60
58405;DHT22;44200;50.732;4.276;2022-07-29T09:01:02;25.50;83.60
58405;DHT22;44200;50.732;4.276;2022-07-29T09:03:32;28.30;79.70
58405;DHT22;44200;50.732;4.276;2022-07-29T09:06:00;31.50;74.40
58405;DHT22;44200;50.732;4.276;2022-07-29T09:08:27;30.30;73.90
58405;DHT22;44200;50.732;4.276;2022-07-29T09:10:54;27.40;77.70
58405;DHT22;44200;50.732;4.276;2022-07-29T09:13:22;27.40;78.70
58405;DHT22;44200;50.732;4.276;2022-07-29T09:15:47;28.30;76.70
58405;DHT22;44200;50.732;4.276;2022-07-29T09:21:02;29.50;75.00
58405;DHT22;44200;50.732;4.276;2022-07-29T09:24:09;28.00;74.90
58405;DHT22;44200;50.732;4.276;2022-07-29T09:26:41;26.60;75.70
58405;DHT22;44200;50.732;4.276;2022-07-29T09:29:26;27.70;75.20
58405;DHT22;44200;50.732;4.276;2022-07-29T09:31:54;29.70;73.40
58405;DHT22;44200;50.732;4.276;2022-07-29T09:34:24;32.50;68.00
58405;DHT22;44200;50.732;4.276;2022-07-29T09:36:51;29.40;70.20
58405;DHT22;44200;50.732;4.276;2022-07-29T09:42:01;27.80;73.30
58405;DHT22;44200;50.732;4.276;2022-07-29T09:44:27;29.10;71.50
58405;DHT22;44200;50.732;4.276;2022-07-29T09:47:05;28.20;73.00
58405;DHT22;44200;50.732;4.276;2022-07-29T09:49:32;30.60;70.80
58405;DHT22;44200;50.732;4.276;2022-07-29T09:52:09;29.20;69.50
58405;DHT22;44200;50.732;4.276;2022-07-29T09:54:35;30.60;68.90
58405;DHT22;44200;50.732;4.276;2022-07-29T09:57:28;31.90;67.70
58405;DHT22;44200;50.732;4.276;2022-07-29T09:59:58;31.20;68.00
58405;DHT22;44200;50.732;4.276;2022-07-29T10:02:28;30.50;66.90
58405;DHT22;44200;50.732;4.276;2022-07-29T10:04:55;28.50;68.80
58405;DHT22;44200;50.732;4.276;2022-07-29T10:07:21;28.50;69.20
58405;DHT22;44200;50.732;4.276;2022-07-29T10:09:55;30.20;67.90
58405;DHT22;44200;50.732;4.276;2022-07-29T10:12:21;31.40;66.20
58405;DHT22;44200;50.732;4.276;2022-07-29T10:14:47;30.00;66.90
58405;DHT22;44200;50.732;4.276;2022-07-29T10:17:13;29.20;68.30
58405;DHT22;44200;50.732;4.276;2022-07-29T10:19:40;29.80;69.40
58405;DHT22;44200;50.732;4.276;2022-07-29T10:22:09;29.70;70.00
58405;DHT22;44200;50.732;4.276;2022-07-29T10:24:36;30.00;68.10
58405;DHT22;44200;50.732;4.276;2022-07-29T10:27:06;30.70;66.50
58405;DHT22;44200;50.732;4.276;2022-07-29T10:29:33;30.00;67.50
58405;DHT22;44200;50.732;4.276;2022-07-29T10:32:20;32.00;65.80
58405;DHT22;44200;50.732;4.276;2022-07-29T10:43:33;32.30;64.30
58405;DHT22;44200;50.732;4.276;2022-07-29T10:46:02;33.60;62.80
58405;DHT22;44200;50.732;4.276;2022-07-29T10:48:28;33.10;63.10
58405;DHT22;44200;50.732;4.276;2022-07-29T10:51:01;32.30;63.00
58405;DHT22;44200;50.732;4.276;2022-07-29T10:53:46;31.30;64.30
58405;DHT22;44200;50.732;4.276;2022-07-29T10:56:27;32.20;62.10
58405;DHT22;44200;50.732;4.276;2022-07-29T10:59:26;33.10;61.90
58405;DHT22;44200;50.732;4.276;2022-07-29T11:01:53;32.60;61.00
58405;DHT22;44200;50.732;4.276;2022-07-29T11:07:12;33.50;61.30
58405;DHT22;44200;50.732;4.276;2022-07-29T11:09:38;35.40;60.40
58405;DHT22;44200;50.732;4.276;2022-07-29T11:15:02;31.40;62.10
58405;DHT22;44200;50.732;4.276;2022-07-29T11:17:28;34.40;59.70
58405;DHT22;44200;50.732;4.276;2022-07-29T11:22:58;32.40;61.00
58405;DHT22;44200;50.732;4.276;2022-07-29T11:25:24;35.70;59.40
58405;DHT22;44200;50.732;4.276;2022-07-29T11:27:52;34.80;60.20
58405;DHT22;44200;50.732;4.276;2022-07-29T11:30:19;31.50;61.00
58405;DHT22;44200;50.732;4.276;2022-07-29T11:32:45;32.70;60.90
58405;DHT22;44200;50.732;4.276;2022-07-29T11:35:14;34.70;58.80
58405;DHT22;44200;50.732;4.276;2022-07-29T11:37:40;32.50;57.80
58405;DHT22;44200;50.732;4.276;2022-07-29T11:45:11;37.90;55.70
58405;DHT22;44200;50.732;4.276;2022-07-29T11:47:50;38.10;55.10
58405;DHT22;44200;50.732;4.276;2022-07-29T11:50:28;36.00;56.50
58405;DHT22;44200;50.732;4.276;2022-07-29T11:52:54;33.50;58.90
58405;DHT22;44200;50.732;4.276;2022-07-29T11:55:21;35.30;55.80
58405;DHT22;44200;50.732;4.276;2022-07-29T11:57:51;35.30;57.40
58405;DHT22;44200;50.732;4.276;2022-07-29T12:00:35;35.40;55.20
58405;DHT22;44200;50.732;4.276;2022-07-29T12:03:06;35.90;55.90
58405;DHT22;44200;50.732;4.276;2022-07-29T12:05:34;34.50;56.40
58405;DHT22;44200;50.732;4.276;2022-07-29T12:08:29;37.70;56.00
58405;DHT22;44200;50.732;4.276;2022-07-29T12:10:55;35.20;53.90
58405;DHT22;44200;50.732;4.276;2022-07-29T12:13:21;34.30;56.20
58405;DHT22;44200;50.732;4.276;2022-07-29T12:15:54;33.80;55.80
58405;DHT22;44200;50.732;4.276;2022-07-29T12:18:22;33.80;55.20
58405;DHT22;44200;50.732;4.276;2022-07-29T12:20:49;32.80;56.10
58405;DHT22;44200;50.732;4.276;2022-07-29T12:23:21;35.50;55.20
58405;DHT22;44200;50.732;4.276;2022-07-29T12:25:47;37.30;53.90
58405;DHT22;44200;50.732;4.276;2022-07-29T12:28:13;38.60;52.80
58405;DHT22;44200;50.732;4.276;2022-07-29T12:30:48;36.70;52.70
58405;DHT22;44200;50.732;4.276;2022-07-29T12:33:22;35.40;53.50
58405;DHT22;44200;50.732;4.276;2022-07-29T12:35:57;33.70;54.30
58405;DHT22;44200;50.732;4.276;2022-07-29T12:38:24;31.50;57.00
58405;DHT22;44200;50.732;4.276;2022-07-29T12:40:51;31.60;57.10
58405;DHT22;44200;50.732;4.276;2022-07-29T12:43:19;31.70;58.90
58405;DHT22;44200;50.732;4.276;2022-07-29T12:45:50;31.70;57.70
58405;DHT22;44200;50.732;4.276;2022-07-29T12:48:17;32.80;56.70
58405;DHT22;44200;50.732;4.276;2022-07-29T12:51:12;33.20;56.70
58405;DHT22;44200;50.732;4.276;2022-07-29T12:53:39;30.50;58.20
58405;DHT22;44200;50.732;4.276;2022-07-29T12:56:06;30.30;58.80
58405;DHT22;44200;50.732;4.276;2022-07-29T12:58:41;29.30;60.20
58405;DHT22;44200;50.732;4.276;2022-07-29T13:01:14;31.10;58.80
58405;DHT22;44200;50.732;4.276;2022-07-29T13:03:53;32.90;57.40
58405;DHT22;44200;50.732;4.276;2022-07-29T13:09:16;32.10;57.00
58405;DHT22;44200;50.732;4.276;2022-07-29T13:11:45;29.60;60.20
58405;DHT22;44200;50.732;4.276;2022-07-29T13:14:13;29.30;61.00
58405;DHT22;44200;50.732;4.276;2022-07-29T13:17:10;28.90;62.00
58405;DHT22;44200;50.732;4.276;2022-07-29T13:19:41;30.60;60.90
58405;DHT22;44200;50.732;4.276;2022-07-29T13:22:12;31.10;61.30
58405;DHT22;44200;50.732;4.276;2022-07-29T13:24:54;33.40;58.30
58405;DHT22;44200;50.732;4.276;2022-07-29T13:27:29;33.40;57.50
58405;DHT22;44200;50.732;4.276;2022-07-29T13:29:56;31.80;58.00
58405;DHT22;44200;50.732;4.276;2022-07-29T13:32:24;29.90;60.50
58405;DHT22;44200;50.732;4.276;2022-07-29T13:34:50;29.20;61.70
58405;DHT22;44200;50.732;4.276;2022-07-29T13:37:17;28.50;62.40
58405;DHT22;44200;50.732;4.276;2022-07-29T13:39:43;29.70;62.20
58405;DHT22;44200;50.732;4.276;2022-07-29T13:42:09;30.50;60.50
58405;DHT22;44200;50.732;4.276;2022-07-29T13:44:35;30.70;59.90
58405;DHT22;44200;50.732;4.276;2022-07-29T13:47:01;30.70;59.40
58405;DHT22;44200;50.732;4.276;2022-07-29T13:49:27;30.40;59.30
58405;DHT22;44200;50.732;4.276;2022-07-29T13:51:53;30.90;59.30
58405;DHT22;44200;50.732;4.276;2022-07-29T13:54:19;30.80;59.30
58405;DHT22;44200;50.732;4.276;2022-07-29T13:56:45;29.50;60.00
58405;DHT22;44200;50.732;4.276;2022-07-29T13:59:10;32.20;58.00
58405;DHT22;44200;50.732;4.276;2022-07-29T14:01:37;30.70;57.80
58405;DHT22;44200;50.732;4.276;2022-07-29T14:04:03;30.80;59.10
58405;DHT22;44200;50.732;4.276;2022-07-29T14:06:28;30.20;59.50
58405;DHT22;44200;50.732;4.276;2022-07-29T14:08:54;30.30;58.40
58405;DHT22;44200;50.732;4.276;2022-07-29T14:11:20;31.70;58.40
58405;DHT22;44200;50.732;4.276;2022-07-29T14:13:46;33.40;55.50
58405;DHT22;44200;50.732;4.276;2022-07-29T14:16:11;34.90;53.00
58405;DHT22;44200;50.732;4.276;2022-07-29T14:18:37;33.60;52.80
58405;DHT22;44200;50.732;4.276;2022-07-29T14:21:03;34.30;54.20
58405;DHT22;44200;50.732;4.276;2022-07-29T14:23:28;34.90;53.00
58405;DHT22;44200;50.732;4.276;2022-07-29T14:25:54;33.10;54.70
58405;DHT22;44200;50.732;4.276;2022-07-29T14:28:20;33.10;55.00
58405;DHT22;44200;50.732;4.276;2022-07-29T14:30:46;34.30;54.40
58405;DHT22;44200;50.732;4.276;2022-07-29T14:33:12;33.20;52.80
58405;DHT22;44200;50.732;4.276;2022-07-29T14:35:37;33.20;54.30
58405;DHT22;44200;50.732;4.276;2022-07-29T14:38:03;32.20;54.70
58405;DHT22;44200;50.732;4.276;2022-07-29T14:40:29;29.80;57.20
58405;DHT22;44200;50.732;4.276;2022-07-29T14:42:54;28.60;58.60
58405;DHT22;44200;50.732;4.276;2022-07-29T14:45:20;27.90;59.50
58405;DHT22;44200;50.732;4.276;2022-07-29T14:47:46;27.50;60.40
58405;DHT22;44200;50.732;4.276;2022-07-29T14:50:11;27.50;60.40
58405;DHT22;44200;50.732;4.276;2022-07-29T14:52:37;27.40;61.10
58405;DHT22;44200;50.732;4.276;2022-07-29T14:55:04;27.50;61.40
58405;DHT22;44200;50.732;4.276;2022-07-29T14:57:30;27.90;61.80
58405;DHT22;44200;50.732;4.276;2022-07-29T14:59:55;28.20;59.30
58405;DHT22;44200;50.732;4.276;2022-07-29T15:02:21;28.40;58.60
58405;DHT22;44200;50.732;4.276;2022-07-29T15:04:47;28.20;60.10
58405;DHT22;44200;50.732;4.276;2022-07-29T15:07:13;28.30;57.90
58405;DHT22;44200;50.732;4.276;2022-07-29T15:09:39;28.30;59.20
58405;DHT22;44200;50.732;4.276;2022-07-29T15:12:06;28.30;59.20
58405;DHT22;44200;50.732;4.276;2022-07-29T15:14:32;28.40;58.70
58405;DHT22;44200;50.732;4.276;2022-07-29T15:16:57;29.10;61.30
58405;DHT22;44200;50.732;4.276;2022-07-29T15:19:23;29.10;58.80
58405;DHT22;44200;50.732;4.276;2022-07-29T15:21:49;28.70;58.80
58405;DHT22;44200;50.732;4.276;2022-07-29T15:24:17;28.80;59.80
58405;DHT22;44200;50.732;4.276;2022-07-29T15:26:44;28.80;57.70
58405;DHT22;44200;50.732;4.276;2022-07-29T15:29:09;28.60;59.10
58405;DHT22;44200;50.732;4.276;2022-07-29T15:31:35;28.30;59.20
58405;DHT22;44200;50.732;4.276;2022-07-29T15:34:01;27.90;60.50
58405;DHT22;44200;50.732;4.276;2022-07-29T15:36:26;27.70;59.50
58405;DHT22;44200;50.732;4.276;2022-07-29T15:38:53;27.50;59.90
58405;DHT22;44200;50.732;4.276;2022-07-29T15:41:19;27.80;60.10
58405;DHT22;44200;50.732;4.276;2022-07-29T15:43:45;28.30;59.60
58405;DHT22;44200;50.732;4.276;2022-07-29T15:46:14;28.80;59.60
58405;DHT22;44200;50.732;4.276;2022-07-29T15:48:59;29.10;58.30
58405;DHT22;44200;50.732;4.276;2022-07-29T15:51:26;29.00;58.80
58405;DHT22;44200;50.732;4.276;2022-07-29T15:53:51;28.90;59.70
58405;DHT22;44200;50.732;4.276;2022-07-29T15:56:17;29.00;59.50
58405;DHT22;44200;50.732;4.276;2022-07-29T15:58:43;29.40;58.70
58405;DHT22;44200;50.732;4.276;2022-07-29T16:01:09;28.80;58.30
58405;DHT22;44200;50.732;4.276;2022-07-29T16:03:34;28.20;60.10
58405;DHT22;44200;50.732;4.276;2022-07-29T16:06:00;27.90;59.90
58405;DHT22;44200;50.732;4.276;2022-07-29T16:08:26;28.60;59.10
58405;DHT22;44200;50.732;4.276;2022-07-29T16:10:51;29.20;59.00
58405;DHT22;44200;50.732;4.276;2022-07-29T16:13:17;29.60;59.10
58405;DHT22;44200;50.732;4.276;2022-07-29T16:15:43;29.80;57.90
58405;DHT22;44200;50.732;4.276;2022-07-29T16:21:09;28.60;59.30
58405;DHT22;44200;50.732;4.276;2022-07-29T16:23:34;27.40;61.00
58405;DHT22;44200;50.732;4.276;2022-07-29T16:26:03;27.30;60.20
58405;DHT22;44200;50.732;4.276;2022-07-29T16:33:44;27.40;59.70